createdAt,value
2022-10-18T00:00:48.288Z,11.70
2022-10-18T00:02:20.349Z,11.65
2022-10-18T00:03:52.441Z,11.63
2022-10-18T00:05:24.256Z,11.62
2022-10-18T00:06:56.158Z,11.65
2022-10-18T00:08:28.009Z,11.65
2022-10-18T00:09:59.933Z,11.65
2022-10-18T00:11:32.089Z,11.62
2022-10-18T00:13:04.003Z,11.59
2022-10-18T00:14:35.986Z,11.61
2022-10-18T00:16:11.103Z,11.61
2022-10-18T00:17:43.075Z,11.62
2022-10-18T00:19:15.014Z,11.65
2022-10-18T00:20:56.101Z,11.63
2022-10-18T00:22:28.104Z,11.63
2022-10-18T00:24:00.637Z,11.59
2022-10-18T00:25:32.527Z,11.54
2022-10-18T00:27:04.346Z,11.52
2022-10-18T00:28:36.628Z,11.50
2022-10-18T00:30:08.811Z,11.49
2022-10-18T00:31:41.429Z,11.46
2022-10-18T00:33:13.265Z,11.43
2022-10-18T00:34:45.187Z,11.42
2022-10-18T00:36:17.221Z,11.43
2022-10-18T00:37:49.161Z,11.43
2022-10-18T00:39:21.740Z,11.43
2022-10-18T00:40:53.615Z,11.43
2022-10-18T00:42:28.076Z,11.39
2022-10-18T00:44:00.009Z,11.37
2022-10-18T00:45:31.895Z,11.36
2022-10-18T00:47:07.397Z,11.35
2022-10-18T00:48:39.227Z,11.30
2022-10-18T00:50:11.540Z,11.27
2022-10-18T00:51:45.028Z,11.24
2022-10-18T00:53:18.610Z,11.18
2022-10-18T00:54:51.603Z,11.15
2022-10-18T00:56:23.526Z,11.15
2022-10-18T00:57:55.868Z,11.11
2022-10-18T00:59:28.078Z,11.10
2022-10-18T01:00:59.926Z,11.08
2022-10-18T01:02:32.126Z,11.08
2022-10-18T01:04:04.243Z,11.07
2022-10-18T01:05:38.489Z,11.09
2022-10-18T01:07:10.306Z,11.07
2022-10-18T01:08:51.405Z,11.07
2022-10-18T01:10:27.057Z,11.05
2022-10-18T01:12:17.316Z,11.06
2022-10-18T01:14:07.501Z,11.07
2022-10-18T01:15:43.943Z,11.06
2022-10-18T01:17:15.832Z,11.13
2022-10-18T01:18:50.935Z,11.14
2022-10-18T01:20:37.789Z,11.18
2022-10-18T01:22:14.741Z,11.16
2022-10-18T01:24:01.929Z,11.13
2022-10-18T01:25:45.727Z,11.08
2022-10-18T01:27:36.486Z,11.06
2022-10-18T01:29:27.223Z,11.04
2022-10-18T01:31:00.205Z,11.01
2022-10-18T01:32:37.840Z,11.03
2022-10-18T01:34:10.337Z,11.02
2022-10-18T01:35:48.489Z,11.02
2022-10-18T01:37:21.616Z,11.02
2022-10-18T01:38:56.861Z,11.00
2022-10-18T01:40:30.326Z,11.02
2022-10-18T01:42:04.198Z,11.01
2022-10-18T01:43:37.118Z,10.97
2022-10-18T01:45:09.463Z,10.95
2022-10-18T01:46:42.446Z,10.93
2022-10-18T01:48:14.913Z,10.90
2022-10-18T01:49:46.859Z,10.87
2022-10-18T01:51:20.154Z,10.86
2022-10-18T01:52:52.011Z,10.83
2022-10-18T01:54:27.822Z,10.76
2022-10-18T01:56:25.713Z,10.76
2022-10-18T01:58:00.538Z,10.74
2022-10-18T01:59:32.393Z,10.73
2022-10-18T02:01:08.722Z,10.73
2022-10-18T02:02:43.661Z,10.69
2022-10-18T02:04:30.719Z,10.70
2022-10-18T02:06:10.222Z,10.77
2022-10-18T02:07:49.015Z,10.79
2022-10-18T02:09:33.865Z,10.79
2022-10-18T02:11:07.158Z,10.79
2022-10-18T02:12:42.010Z,10.80
2022-10-18T02:14:15.114Z,10.81
2022-10-18T02:15:48.602Z,10.82
2022-10-18T02:17:20.869Z,10.83
2022-10-18T02:18:56.911Z,10.83
2022-10-18T02:20:29.759Z,10.82
2022-10-18T02:22:02.047Z,10.82
2022-10-18T02:23:34.645Z,10.83
2022-10-18T02:25:10.438Z,10.83
2022-10-18T02:26:44.001Z,10.82
2022-10-18T02:28:15.933Z,10.83
2022-10-18T02:29:48.336Z,10.81
2022-10-18T02:31:20.541Z,10.76
2022-10-18T02:33:04.178Z,10.75
2022-10-18T02:34:39.447Z,10.72
2022-10-18T02:36:33.183Z,10.71
2022-10-18T02:38:05.435Z,10.71
2022-10-18T02:39:39.601Z,10.68
2022-10-18T02:41:11.473Z,10.67
2022-10-18T02:42:50.221Z,10.63
2022-10-18T02:44:22.271Z,10.59
2022-10-18T02:45:54.317Z,10.56
2022-10-18T02:47:26.187Z,10.55
2022-10-18T02:48:58.089Z,10.54
2022-10-18T02:50:29.963Z,10.50
2022-10-18T02:52:01.887Z,10.48
2022-10-18T02:53:33.745Z,10.46
2022-10-18T02:55:06.202Z,10.44
2022-10-18T02:56:38.057Z,10.43
2022-10-18T02:58:09.943Z,10.44
2022-10-18T02:59:41.809Z,10.45
2022-10-18T03:01:13.764Z,10.44
2022-10-18T03:02:45.921Z,10.44
2022-10-18T03:04:18.002Z,10.43
2022-10-18T03:05:50.418Z,10.41
2022-10-18T03:07:22.415Z,10.40
2022-10-18T03:08:54.473Z,10.37
2022-10-18T03:10:26.379Z,10.39
2022-10-18T03:11:58.298Z,10.37
2022-10-18T03:15:07.367Z,10.36
2022-10-18T03:16:39.340Z,10.33
2022-10-18T03:18:11.256Z,10.30
2022-10-18T03:19:43.200Z,10.26
2022-10-18T03:21:15.137Z,10.24
2022-10-18T03:22:47.049Z,10.23
2022-10-18T03:24:18.942Z,10.22
2022-10-18T03:25:50.900Z,10.21
2022-10-18T03:27:22.955Z,10.20
2022-10-18T03:28:54.912Z,10.21
2022-10-18T03:30:26.934Z,10.22
2022-10-18T03:31:58.828Z,10.28
2022-10-18T03:33:31.573Z,10.28
2022-10-18T03:35:03.902Z,10.25
2022-10-18T03:36:35.799Z,10.25
2022-10-18T03:38:07.780Z,10.23
2022-10-18T03:39:39.694Z,10.20
2022-10-18T03:41:11.718Z,10.18
2022-10-18T03:42:43.652Z,10.17
2022-10-18T03:44:15.502Z,10.12
2022-10-18T03:45:47.456Z,10.09
2022-10-18T03:47:19.355Z,10.06
2022-10-18T03:48:51.243Z,10.02
2022-10-18T03:50:23.197Z,10.03
2022-10-18T03:51:55.066Z,10.03
2022-10-18T03:53:26.943Z,10.03
2022-10-18T03:54:58.830Z,10.06
2022-10-18T03:56:30.823Z,10.07
2022-10-18T03:58:02.799Z,10.06
2022-10-18T03:59:34.658Z,10.07
2022-10-18T04:01:07.102Z,10.10
2022-10-18T04:02:39.085Z,10.10
2022-10-18T04:04:11.025Z,10.09
2022-10-18T04:05:42.943Z,10.09
2022-10-18T04:07:14.886Z,10.11
2022-10-18T04:08:46.755Z,10.11
2022-10-18T04:10:18.779Z,10.09
2022-10-18T04:11:51.274Z,10.11
2022-10-18T04:13:23.293Z,10.13
2022-10-18T04:14:55.726Z,10.18
2022-10-18T04:16:27.747Z,10.20
2022-10-18T04:17:59.786Z,10.21
2022-10-18T04:19:31.689Z,10.19
2022-10-18T04:21:03.620Z,10.21
2022-10-18T04:22:35.522Z,10.21
2022-10-18T04:24:07.505Z,10.24
2022-10-18T04:25:39.453Z,10.26
2022-10-18T04:27:11.362Z,10.26
2022-10-18T04:28:43.556Z,10.23
2022-10-18T04:30:15.647Z,10.22
2022-10-18T04:31:47.516Z,10.20
2022-10-18T04:33:19.546Z,10.18
2022-10-18T04:34:51.494Z,10.18
2022-10-18T04:36:23.395Z,10.22
2022-10-18T04:37:55.362Z,10.21
2022-10-18T04:39:27.322Z,10.21
2022-10-18T04:40:59.244Z,10.22
2022-10-18T04:42:31.326Z,10.25
2022-10-18T04:44:03.307Z,10.27
2022-10-18T04:45:35.361Z,10.28
2022-10-18T04:47:07.239Z,10.29
2022-10-18T04:48:39.639Z,10.29
2022-10-18T04:50:11.545Z,10.29
2022-10-18T04:51:43.570Z,10.27
2022-10-18T04:53:16.120Z,10.25
2022-10-18T04:54:47.992Z,10.24
2022-10-18T04:56:19.888Z,10.22
2022-10-18T04:57:52.790Z,10.19
2022-10-18T04:59:24.656Z,10.11
2022-10-18T05:00:56.619Z,10.07
2022-10-18T05:02:28.544Z,10.12
2022-10-18T05:04:00.655Z,10.23
2022-10-18T05:05:43.510Z,10.29
2022-10-18T05:07:24.392Z,10.27
2022-10-18T05:08:56.294Z,10.27
2022-10-18T05:10:28.174Z,10.29
2022-10-18T05:12:00.187Z,10.27
2022-10-18T05:13:32.104Z,10.22
2022-10-18T05:15:04.326Z,10.20
2022-10-18T05:16:36.382Z,10.23
2022-10-18T05:18:08.245Z,10.26
2022-10-18T05:19:40.323Z,10.25
2022-10-18T05:21:12.536Z,10.24
2022-10-18T05:22:44.497Z,10.25
2022-10-18T05:24:16.399Z,10.28
2022-10-18T05:25:48.313Z,10.26
2022-10-18T05:27:20.240Z,10.21
2022-10-18T05:28:52.257Z,10.20
2022-10-18T05:30:24.260Z,10.22
2022-10-18T05:31:56.120Z,10.27
2022-10-18T05:33:28.218Z,10.32
2022-10-18T05:35:00.135Z,10.35
2022-10-18T05:36:32.085Z,10.39
2022-10-18T05:38:05.821Z,10.40
2022-10-18T05:39:38.014Z,10.41
2022-10-18T05:41:10.277Z,10.41
2022-10-18T05:42:42.129Z,10.47
2022-10-18T05:44:13.962Z,10.52
2022-10-18T05:45:49.807Z,10.57
2022-10-18T05:47:21.700Z,10.63
2022-10-18T05:48:53.599Z,10.70
2022-10-18T05:50:25.467Z,10.76
2022-10-18T05:51:57.351Z,10.81
2022-10-18T05:53:36.815Z,10.83
2022-10-18T05:55:09.641Z,10.85
2022-10-18T05:56:41.735Z,10.86
2022-10-18T05:58:13.672Z,10.88
2022-10-18T05:59:46.127Z,10.94
2022-10-18T06:01:18.141Z,10.99
2022-10-18T06:02:50.078Z,11.04
2022-10-18T06:04:22.074Z,11.10
2022-10-18T06:05:58.602Z,11.17
2022-10-18T06:07:30.835Z,11.23
2022-10-18T06:09:05.840Z,11.36
2022-10-18T06:10:39.076Z,11.66
2022-10-18T06:12:10.978Z,12.08
2022-10-18T06:13:43.494Z,12.45
2022-10-18T06:15:15.518Z,12.85
2022-10-18T06:16:47.425Z,13.27
2022-10-18T06:18:19.312Z,13.65
2022-10-18T06:19:51.202Z,13.93
2022-10-18T06:21:23.917Z,14.12
2022-10-18T06:22:55.815Z,14.28
2022-10-18T06:24:27.822Z,14.51
2022-10-18T06:26:04.391Z,14.62
2022-10-18T06:27:36.395Z,14.67
2022-10-18T06:29:08.384Z,14.86
2022-10-18T06:30:40.514Z,14.97
2022-10-18T06:32:12.405Z,14.98
2022-10-18T06:33:45.882Z,15.02
2022-10-18T06:35:17.812Z,15.02
2022-10-18T06:36:49.696Z,15.19
2022-10-18T06:38:21.531Z,15.25
2022-10-18T06:39:53.439Z,15.34
2022-10-18T06:41:25.685Z,15.45
2022-10-18T06:43:00.537Z,15.65
2022-10-18T06:44:42.541Z,15.89
2022-10-18T06:46:14.474Z,15.95
2022-10-18T06:47:46.341Z,16.01
2022-10-18T06:49:19.305Z,16.11
2022-10-18T06:50:54.894Z,16.22
2022-10-18T06:52:26.786Z,16.16
2022-10-18T06:54:16.966Z,16.02
2022-10-18T06:55:50.317Z,15.93
2022-10-18T06:57:22.220Z,15.98
2022-10-18T06:58:54.160Z,16.01
2022-10-18T07:00:26.326Z,16.00
2022-10-18T07:01:58.325Z,16.08
2022-10-18T07:03:30.278Z,16.17
2022-10-18T07:05:02.160Z,16.14
2022-10-18T07:06:34.386Z,16.14
2022-10-18T07:08:06.303Z,16.18
2022-10-18T07:09:38.340Z,16.05
2022-10-18T07:11:14.951Z,15.91
2022-10-18T07:12:46.964Z,15.87
2022-10-18T07:14:18.849Z,15.98
2022-10-18T07:16:00.619Z,16.01
2022-10-18T07:17:32.898Z,16.11
2022-10-18T07:19:05.032Z,16.30
2022-10-18T07:20:36.925Z,16.37
2022-10-18T07:22:08.833Z,16.41
2022-10-18T07:23:41.900Z,16.43
2022-10-18T07:25:13.807Z,16.31
2022-10-18T07:26:45.704Z,16.18
2022-10-18T07:28:17.624Z,16.09
2022-10-18T07:29:50.133Z,15.95
2022-10-18T07:31:22.775Z,15.86
2022-10-18T07:32:54.669Z,15.82
2022-10-18T07:34:26.629Z,15.78
2022-10-18T07:36:03.207Z,15.83
2022-10-18T07:37:35.417Z,15.92
2022-10-18T07:39:07.746Z,15.82
2022-10-18T07:40:39.645Z,15.77
2022-10-18T07:42:11.538Z,15.65
2022-10-18T07:43:45.836Z,15.70
2022-10-18T07:45:17.756Z,15.65
2022-10-18T07:46:49.686Z,15.58
2022-10-18T07:48:21.599Z,15.63
2022-10-18T07:49:53.445Z,15.65
2022-10-18T07:51:25.669Z,15.65
2022-10-18T07:52:57.573Z,15.66
2022-10-18T07:54:30.318Z,15.70
2022-10-18T07:56:05.952Z,15.74
2022-10-18T07:57:40.624Z,15.82
2022-10-18T07:59:13.508Z,15.80
2022-10-18T08:00:45.455Z,15.73
2022-10-18T08:02:17.325Z,15.58
2022-10-18T08:03:49.525Z,15.50
2022-10-18T08:05:21.567Z,15.42
2022-10-18T08:06:53.537Z,15.38
2022-10-18T08:08:25.742Z,15.27
2022-10-18T08:09:57.630Z,15.07
2022-10-18T08:11:29.600Z,14.85
2022-10-18T08:13:01.556Z,14.74
2022-10-18T08:14:33.442Z,14.64
2022-10-18T08:16:07.000Z,14.55
2022-10-18T08:17:38.945Z,14.57
2022-10-18T08:19:10.872Z,14.52
2022-10-18T08:20:46.203Z,14.43
2022-10-18T08:22:18.086Z,14.35
2022-10-18T08:23:50.271Z,14.30
2022-10-18T08:25:22.221Z,14.26
2022-10-18T08:26:54.168Z,14.27
2022-10-18T08:28:26.111Z,14.32
2022-10-18T08:29:59.878Z,14.33
2022-10-18T08:31:31.955Z,14.36
2022-10-18T08:33:03.908Z,14.36
2022-10-18T08:34:35.892Z,14.42
2022-10-18T08:36:08.614Z,14.44
2022-10-18T08:37:40.633Z,14.46
2022-10-18T08:39:12.541Z,14.44
2022-10-18T08:40:44.584Z,14.46
2022-10-18T08:42:17.296Z,14.51
2022-10-18T08:44:27.831Z,14.57
2022-10-18T08:45:59.897Z,14.64
2022-10-18T08:47:52.015Z,14.66
2022-10-18T08:49:28.472Z,14.71
2022-10-18T08:51:00.600Z,14.75
2022-10-18T08:52:48.491Z,14.81
2022-10-18T08:54:29.807Z,14.86
2022-10-18T08:56:05.183Z,14.89
2022-10-18T08:57:37.278Z,14.92
2022-10-18T08:59:12.611Z,14.97
2022-10-18T09:00:50.108Z,15.04
2022-10-18T09:02:22.005Z,15.07
2022-10-18T09:04:12.821Z,15.12
2022-10-18T09:05:44.747Z,15.18
2022-10-18T09:07:28.489Z,15.21
2022-10-18T09:09:02.921Z,15.27
2022-10-18T09:10:37.547Z,15.30
2022-10-18T09:12:15.617Z,15.34
2022-10-18T09:13:53.666Z,15.38
2022-10-18T09:15:46.319Z,15.40
2022-10-18T09:17:29.993Z,15.46
2022-10-18T09:19:13.828Z,15.50
2022-10-18T09:20:58.041Z,15.58
2022-10-18T09:22:48.476Z,15.61
2022-10-18T09:24:27.117Z,15.67
2022-10-18T09:26:02.898Z,15.74
2022-10-18T09:27:44.361Z,15.79
2022-10-18T09:29:24.959Z,15.81
2022-10-18T09:30:58.759Z,15.84
2022-10-18T09:32:44.381Z,15.88
2022-10-18T09:34:25.450Z,15.94
2022-10-18T09:36:08.346Z,16.01
2022-10-18T09:37:41.057Z,16.07
2022-10-18T09:39:18.517Z,16.13
2022-10-18T09:40:53.183Z,16.19
2022-10-18T09:42:31.251Z,16.24
2022-10-18T09:44:03.214Z,16.30
2022-10-18T09:45:43.073Z,16.37
2022-10-18T09:47:18.762Z,16.40
2022-10-18T09:48:57.157Z,16.44
2022-10-18T09:50:34.984Z,16.48
2022-10-18T09:52:09.230Z,16.54
2022-10-18T09:53:59.909Z,16.62
2022-10-18T09:55:34.996Z,16.68
2022-10-18T09:57:10.037Z,16.72
2022-10-18T09:58:44.095Z,16.78
2022-10-18T10:00:19.298Z,16.82
2022-10-18T10:01:51.346Z,16.87
2022-10-18T10:03:23.323Z,16.95
2022-10-18T10:04:55.744Z,17.02
2022-10-18T10:06:28.987Z,17.06
2022-10-18T10:08:02.863Z,17.11
2022-10-18T10:09:44.186Z,17.14
2022-10-18T10:11:33.438Z,17.21
2022-10-18T10:13:07.075Z,17.27
2022-10-18T10:14:45.106Z,17.31
2022-10-18T10:16:17.102Z,17.38
2022-10-18T10:17:55.337Z,17.42
2022-10-18T10:19:35.365Z,17.47
2022-10-18T10:21:08.187Z,17.53
2022-10-18T10:22:41.419Z,17.62
2022-10-18T10:24:31.173Z,17.68
2022-10-18T10:26:23.491Z,17.76
2022-10-18T10:27:55.460Z,17.82
2022-10-18T10:29:45.489Z,17.86
2022-10-18T10:31:31.339Z,17.90
2022-10-18T10:33:04.308Z,17.94
2022-10-18T10:34:37.297Z,17.97
2022-10-18T10:36:17.991Z,18.03
2022-10-18T10:37:53.615Z,18.09
2022-10-18T10:39:25.475Z,18.18
2022-10-18T10:40:57.833Z,18.24
2022-10-18T10:42:37.937Z,18.31
2022-10-18T10:44:36.015Z,18.36
2022-10-18T10:46:13.022Z,18.45
2022-10-18T10:47:44.989Z,18.50
2022-10-18T10:51:11.158Z,18.64
2022-10-18T10:52:47.240Z,18.69
2022-10-18T10:54:21.714Z,18.75
2022-10-18T10:55:58.193Z,18.79
2022-10-18T10:57:30.495Z,18.88
2022-10-18T10:59:15.792Z,18.90
2022-10-18T11:00:47.750Z,18.95
2022-10-18T11:02:21.831Z,18.97
2022-10-18T11:03:55.737Z,19.00
2022-10-18T11:05:29.583Z,19.04
2022-10-18T11:07:09.559Z,19.09
2022-10-18T11:08:42.092Z,19.13
2022-10-18T11:10:16.038Z,19.18
2022-10-18T11:11:53.066Z,19.19
2022-10-18T11:13:31.984Z,19.23
2022-10-18T11:15:12.128Z,19.26
2022-10-18T11:16:50.095Z,19.29
2022-10-18T11:18:24.205Z,19.32
2022-10-18T11:20:09.758Z,19.33
2022-10-18T11:21:42.258Z,19.35
2022-10-18T11:23:15.436Z,19.37
2022-10-18T11:24:47.602Z,19.36
2022-10-18T11:26:19.445Z,19.39
2022-10-18T11:28:06.120Z,19.43
2022-10-18T11:29:50.228Z,19.48
2022-10-18T11:31:30.617Z,19.52
2022-10-18T11:33:06.736Z,19.53
2022-10-18T11:34:41.454Z,19.55
2022-10-18T11:36:13.444Z,19.56
2022-10-18T11:37:51.587Z,19.57
2022-10-18T11:39:23.444Z,19.59
2022-10-18T11:41:01.092Z,19.60
2022-10-18T11:42:39.842Z,19.60
2022-10-18T11:44:22.756Z,19.63
2022-10-18T11:45:54.658Z,19.64
2022-10-18T11:47:35.818Z,19.66
2022-10-18T11:49:16.725Z,19.68
2022-10-18T11:50:48.611Z,19.67
2022-10-18T11:52:32.562Z,19.71
2022-10-18T11:54:10.168Z,19.74
2022-10-18T11:56:03.946Z,19.76
2022-10-18T11:57:44.749Z,19.79
2022-10-18T11:59:16.657Z,19.78
2022-10-18T12:01:12.088Z,19.78
2022-10-18T12:02:44.011Z,19.78
2022-10-18T12:04:18.819Z,19.81
2022-10-18T12:05:52.709Z,19.86
2022-10-18T12:07:28.926Z,19.89
2022-10-18T12:09:23.788Z,19.91
2022-10-18T12:11:05.182Z,19.92
2022-10-18T12:12:42.189Z,19.94
2022-10-18T12:14:21.516Z,19.94
2022-10-18T12:15:54.180Z,19.96
2022-10-18T12:17:46.109Z,19.99
2022-10-18T12:19:26.205Z,20.00
2022-10-18T12:20:59.949Z,20.03
2022-10-18T12:22:37.186Z,20.05
2022-10-18T12:24:12.741Z,20.09
2022-10-18T12:25:52.766Z,20.10
2022-10-18T12:27:32.394Z,20.14
2022-10-18T12:29:27.461Z,20.14
2022-10-18T12:31:08.131Z,20.17
2022-10-18T12:32:47.634Z,20.18
2022-10-18T12:34:23.813Z,20.20
2022-10-18T12:36:07.996Z,20.22
2022-10-18T12:37:59.917Z,20.24
2022-10-18T12:39:57.679Z,20.23
2022-10-18T12:41:35.856Z,20.23
2022-10-18T12:43:09.967Z,20.23
2022-10-18T12:44:41.893Z,20.25
2022-10-18T12:46:14.101Z,20.25
2022-10-18T12:47:46.103Z,20.27
2022-10-18T12:49:24.202Z,20.28
2022-10-18T12:51:18.051Z,20.29
2022-10-18T12:53:13.300Z,20.31
2022-10-18T12:55:01.547Z,20.32
2022-10-18T12:56:37.725Z,20.34
2022-10-18T12:58:15.712Z,20.37
2022-10-18T12:59:47.657Z,20.38
2022-10-18T13:01:19.584Z,20.40
2022-10-18T13:03:11.698Z,20.39
2022-10-18T13:04:43.624Z,20.36
2022-10-18T13:06:15.555Z,20.32
2022-10-18T13:07:47.487Z,20.33
2022-10-18T13:09:21.389Z,20.34
2022-10-18T13:11:08.760Z,20.35
2022-10-18T13:12:40.773Z,20.36
2022-10-18T13:14:15.656Z,20.37
2022-10-18T13:15:52.040Z,20.37
2022-10-18T13:17:23.947Z,20.34
2022-10-18T13:19:00.519Z,20.34
2022-10-18T13:20:38.114Z,20.35
2022-10-18T13:22:19.322Z,20.35
2022-10-18T13:23:54.090Z,20.34
2022-10-18T13:25:28.694Z,20.35
2022-10-18T13:29:13.916Z,20.34
2022-10-18T13:30:58.117Z,20.33
2022-10-18T13:32:59.490Z,20.34
2022-10-18T13:34:34.799Z,20.33
2022-10-18T13:36:22.970Z,20.32
2022-10-18T13:37:59.934Z,20.31
2022-10-18T13:39:32.555Z,20.28
2022-10-18T13:41:04.604Z,20.27
2022-10-18T13:42:36.569Z,20.25
2022-10-18T13:44:11.629Z,20.25
2022-10-18T13:45:45.340Z,20.24
2022-10-18T13:47:33.857Z,20.22
2022-10-18T13:49:20.903Z,20.21
2022-10-18T13:50:55.505Z,20.20
2022-10-18T13:52:27.394Z,20.18
2022-10-18T13:54:08.290Z,20.18
2022-10-18T13:55:55.120Z,20.17
2022-10-18T13:57:31.025Z,20.14
2022-10-18T13:59:23.311Z,20.11
2022-10-18T14:01:04.052Z,20.09
2022-10-18T14:02:50.998Z,20.05
2022-10-18T14:04:39.121Z,20.03
2022-10-18T14:06:16.316Z,20.00
2022-10-18T14:07:49.086Z,19.96
2022-10-18T14:11:33.507Z,19.90
2022-10-18T14:13:06.628Z,19.87
2022-10-18T14:14:46.266Z,19.82
2022-10-18T14:16:18.129Z,19.78
2022-10-18T14:17:55.974Z,19.74
2022-10-18T14:19:33.945Z,19.70
2022-10-18T14:21:15.249Z,19.68
2022-10-18T14:22:48.751Z,19.64
2022-10-18T14:24:22.492Z,19.61
2022-10-18T14:26:14.361Z,19.55
2022-10-18T14:27:50.888Z,19.49
2022-10-18T14:29:25.654Z,19.43
2022-10-18T14:31:08.397Z,19.38
2022-10-18T14:32:48.130Z,19.33
2022-10-18T14:34:20.773Z,19.26
2022-10-18T14:36:22.014Z,19.20
2022-10-18T14:37:54.452Z,19.10
2022-10-18T14:39:29.105Z,19.04
2022-10-18T14:41:27.167Z,18.97
2022-10-18T14:43:25.288Z,18.87
2022-10-18T14:44:57.312Z,18.78
2022-10-18T14:46:31.259Z,18.71
2022-10-18T14:48:07.866Z,18.62
2022-10-18T14:49:43.894Z,18.54
2022-10-18T14:51:17.037Z,18.47
2022-10-18T14:52:48.956Z,18.40
2022-10-18T14:54:25.052Z,18.32
2022-10-18T14:56:04.451Z,18.26
2022-10-18T14:57:37.223Z,18.18
2022-10-18T14:59:16.390Z,18.12
2022-10-18T15:00:48.695Z,18.07
2022-10-18T15:02:24.764Z,18.02
2022-10-18T15:04:01.240Z,17.97
2022-10-18T15:05:33.244Z,17.89
2022-10-18T15:07:06.350Z,17.84
2022-10-18T15:08:41.706Z,17.79
2022-10-18T15:10:33.011Z,17.75
2022-10-18T15:12:05.798Z,17.70
2022-10-18T15:13:48.212Z,17.68
2022-10-18T15:15:22.033Z,17.64
2022-10-18T15:16:56.398Z,17.60
2022-10-18T15:18:28.609Z,17.56
2022-10-18T15:20:05.905Z,17.52
2022-10-18T15:21:38.542Z,17.48
2022-10-18T15:23:22.047Z,17.42
2022-10-18T15:25:24.319Z,17.38
2022-10-18T15:27:01.160Z,17.32
2022-10-18T15:28:49.526Z,17.28
2022-10-18T15:30:27.885Z,17.22
2022-10-18T15:32:05.376Z,17.20
2022-10-18T15:33:37.350Z,17.14
2022-10-18T15:35:15.760Z,17.09
2022-10-18T15:36:48.616Z,17.03
2022-10-18T15:38:28.117Z,16.97
2022-10-18T15:40:18.862Z,16.89
2022-10-18T15:41:50.824Z,16.81
2022-10-18T15:43:25.532Z,16.73
2022-10-18T15:44:57.493Z,16.67
2022-10-18T15:46:30.877Z,16.60
2022-10-18T15:48:13.117Z,16.52
2022-10-18T15:49:45.184Z,16.45
2022-10-18T15:51:37.198Z,16.39
2022-10-18T15:53:32.408Z,16.30
2022-10-18T15:55:23.119Z,16.23
2022-10-18T15:56:55.222Z,16.16
2022-10-18T15:58:28.524Z,16.11
2022-10-18T16:00:03.673Z,16.03
2022-10-18T16:01:44.489Z,15.95
2022-10-18T16:03:17.066Z,15.89
2022-10-18T16:04:49.015Z,15.83
2022-10-18T16:06:20.938Z,15.77
2022-10-18T16:07:52.900Z,15.74
2022-10-18T16:09:26.329Z,15.69
2022-10-18T16:10:58.954Z,15.63
2022-10-18T16:12:30.860Z,15.58
2022-10-18T16:14:02.785Z,15.53
2022-10-18T16:15:34.707Z,15.49
2022-10-18T16:17:07.000Z,15.46
2022-10-18T16:18:39.079Z,15.43
2022-10-18T16:20:23.905Z,15.37
2022-10-18T16:21:56.044Z,15.33
2022-10-18T16:23:30.963Z,15.29
2022-10-18T16:25:02.974Z,15.25
2022-10-18T16:26:35.038Z,15.25
2022-10-18T16:28:08.721Z,15.23
2022-10-18T16:29:41.632Z,15.21
2022-10-18T16:32:52.619Z,15.14
2022-10-18T16:34:26.564Z,15.10
2022-10-18T16:35:58.769Z,15.08
2022-10-18T16:37:30.695Z,15.05
2022-10-18T16:39:05.098Z,15.03
2022-10-18T16:40:40.375Z,15.00
2022-10-18T16:42:13.312Z,14.97
2022-10-18T16:43:47.033Z,14.94
2022-10-18T16:45:18.932Z,14.90
2022-10-18T16:46:53.830Z,14.87
2022-10-18T16:48:27.794Z,14.86
2022-10-18T16:50:04.073Z,14.83
2022-10-18T16:51:38.450Z,14.85
2022-10-18T16:53:10.538Z,14.88
2022-10-18T16:54:42.431Z,14.89
2022-10-18T16:56:21.954Z,14.88
2022-10-18T16:57:53.833Z,14.87
2022-10-18T16:59:27.161Z,14.86
2022-10-18T17:01:00.990Z,14.86
2022-10-18T17:02:35.278Z,14.86
2022-10-18T17:04:07.262Z,14.88
2022-10-18T17:05:39.645Z,14.91
2022-10-18T17:07:17.858Z,14.94
2022-10-18T17:08:50.369Z,14.93
2022-10-18T17:10:24.295Z,14.91
2022-10-18T17:11:56.270Z,14.91
2022-10-18T17:13:28.114Z,14.92
2022-10-18T17:15:00.096Z,14.93
2022-10-18T17:16:33.247Z,14.94
2022-10-18T17:18:06.035Z,14.93
2022-10-18T17:19:37.910Z,14.94
2022-10-18T17:21:09.887Z,14.91
2022-10-18T17:22:41.944Z,14.91
2022-10-18T17:24:13.909Z,14.93
2022-10-18T17:25:57.840Z,14.95
2022-10-18T17:27:38.390Z,14.98
2022-10-18T17:29:10.308Z,15.03
2022-10-18T17:30:42.690Z,15.08
2022-10-18T17:32:17.858Z,15.13
2022-10-18T17:33:49.842Z,15.18
2022-10-18T17:35:22.103Z,15.23
2022-10-18T17:36:54.581Z,15.28
2022-10-18T17:38:26.458Z,15.33
2022-10-18T17:39:58.538Z,15.38
2022-10-18T17:41:30.479Z,15.40
2022-10-18T17:43:02.491Z,15.44
2022-10-18T17:44:34.370Z,15.47
2022-10-18T17:46:07.104Z,15.48
2022-10-18T17:47:39.855Z,15.51
2022-10-18T17:49:13.994Z,15.54
2022-10-18T17:50:46.078Z,15.57
2022-10-18T17:52:17.982Z,15.58
2022-10-18T17:53:49.866Z,15.61
2022-10-18T17:55:21.849Z,15.64
2022-10-18T17:56:53.858Z,15.66
2022-10-18T17:58:26.676Z,15.68
2022-10-18T17:59:59.724Z,15.72
2022-10-18T18:01:31.724Z,15.73
2022-10-18T18:03:03.698Z,15.73
2022-10-18T18:04:35.615Z,15.74
2022-10-18T18:06:13.334Z,15.74
2022-10-18T18:07:46.027Z,15.74
2022-10-18T18:09:17.939Z,15.74
2022-10-18T18:10:53.643Z,15.73
2022-10-18T18:12:25.582Z,15.70
2022-10-18T18:13:58.234Z,15.66
2022-10-18T18:15:30.154Z,15.63
2022-10-18T18:17:02.077Z,15.59
2022-10-18T18:18:33.940Z,15.53
2022-10-18T18:20:06.241Z,15.46
2022-10-18T18:21:39.085Z,15.39
2022-10-18T18:23:11.248Z,15.33
2022-10-18T18:24:43.107Z,15.26
2022-10-18T18:26:15.267Z,15.19
2022-10-18T18:27:47.114Z,15.14
2022-10-18T18:29:20.470Z,15.07
2022-10-18T18:30:52.439Z,15.01
2022-10-18T18:32:24.364Z,14.96
2022-10-18T18:33:57.219Z,14.90
2022-10-18T18:35:29.193Z,14.86
2022-10-18T18:37:01.099Z,14.81
2022-10-18T18:38:34.036Z,14.76
2022-10-18T18:40:06.387Z,14.70
2022-10-18T18:41:38.504Z,14.65
2022-10-18T18:43:22.858Z,14.61
2022-10-18T18:44:55.464Z,14.55
2022-10-18T18:46:28.474Z,14.51
2022-10-18T18:48:00.466Z,14.48
2022-10-18T18:49:33.107Z,14.47
2022-10-18T18:51:05.747Z,14.47
2022-10-18T18:52:37.725Z,14.46
2022-10-18T18:54:10.887Z,14.46
2022-10-18T18:55:43.048Z,14.44
2022-10-18T18:57:15.027Z,14.44
2022-10-18T18:58:47.199Z,14.42
2022-10-18T19:00:19.211Z,14.41
2022-10-18T19:01:51.147Z,14.39
2022-10-18T19:03:23.385Z,14.38
2022-10-18T19:04:55.511Z,14.34
2022-10-18T19:06:36.666Z,14.30
2022-10-18T19:08:08.746Z,14.27
2022-10-18T19:09:42.334Z,14.24
2022-10-18T19:11:15.763Z,14.21
2022-10-18T19:12:47.808Z,14.18
2022-10-18T19:14:20.092Z,14.17
2022-10-18T19:15:52.103Z,14.14
2022-10-18T19:17:24.064Z,14.13
2022-10-18T19:19:05.315Z,14.12
2022-10-18T19:20:37.226Z,14.11
2022-10-18T19:22:11.074Z,14.11
2022-10-18T19:23:43.059Z,14.13
2022-10-18T19:25:15.196Z,14.13
2022-10-18T19:26:48.819Z,14.14
2022-10-18T19:28:20.781Z,14.15
2022-10-18T19:29:52.675Z,14.17
2022-10-18T19:31:24.678Z,14.22
2022-10-18T19:33:04.032Z,14.26
2022-10-18T19:34:36.034Z,14.31
2022-10-18T19:36:08.552Z,14.39
2022-10-18T19:37:40.771Z,14.46
2022-10-18T19:39:15.637Z,14.54
2022-10-18T19:40:51.620Z,14.59
2022-10-18T19:42:30.276Z,14.66
2022-10-18T19:44:03.517Z,14.72
2022-10-18T19:45:35.414Z,14.77
2022-10-18T19:47:08.633Z,14.85
2022-10-18T19:48:40.517Z,14.91
2022-10-18T19:50:12.526Z,14.97
2022-10-18T19:51:44.719Z,15.01
2022-10-18T19:53:16.743Z,15.04
2022-10-18T19:54:49.143Z,15.07
2022-10-18T19:56:22.034Z,15.09
2022-10-18T19:57:54.773Z,15.12
2022-10-18T19:59:26.892Z,15.13
2022-10-18T20:01:00.185Z,15.15
2022-10-18T20:02:32.444Z,15.14
2022-10-18T20:04:04.874Z,15.14
2022-10-18T20:05:36.842Z,15.13
2022-10-18T20:07:08.733Z,15.10
2022-10-18T20:10:17.825Z,15.01
2022-10-18T20:11:49.834Z,14.96
2022-10-18T20:13:22.376Z,14.92
2022-10-18T20:14:54.275Z,14.87
2022-10-18T20:16:28.581Z,14.82
2022-10-18T20:18:00.813Z,14.74
2022-10-18T20:19:32.738Z,14.68
2022-10-18T20:21:08.605Z,14.60
2022-10-18T20:22:40.533Z,14.53
2022-10-18T20:24:12.658Z,14.46
2022-10-18T20:26:04.872Z,14.41
2022-10-18T20:27:36.758Z,14.35
2022-10-18T20:29:08.734Z,14.30
2022-10-18T20:30:40.685Z,14.23
2022-10-18T20:32:12.550Z,14.18
2022-10-18T20:33:45.368Z,14.13
2022-10-18T20:35:17.289Z,14.06
2022-10-18T20:36:49.260Z,13.99